sensor_id;sensor_type;location;lat;lon;timestamp;pressure;altitude;pressure_sealevel;temperature;humidity
34566;BME280;20803;42.676;26.348;2023-09-30T00:00:46;98852.19;;;22.61;37.49
34566;BME280;20803;42.676;26.348;2023-09-30T00:03:12;98853.34;;;22.69;37.39
34566;BME280;20803;42.676;26.348;2023-09-30T00:05:37;98859.63;;;22.73;37.21
34566;BME280;20803;42.676;26.348;2023-09-30T00:08:04;98849.66;;;22.78;37.15
34566;BME280;20803;42.676;26.348;2023-09-30T00:10:30;98854.91;;;22.85;37.25
34566;BME280;20803;42.676;26.348;2023-09-30T00:12:56;98851.38;;;22.90;37.12
34566;BME280;20803;42.676;26.348;2023-09-30T00:15:22;98852.22;;;22.96;37.19
34566;BME280;20803;42.676;26.348;2023-09-30T00:17:47;98849.97;;;23.00;37.46
34566;BME280;20803;42.676;26.348;2023-09-30T00:20:13;98857.28;;;23.06;37.09
34566;BME280;20803;42.676;26.348;2023-09-30T00:22:40;98850.75;;;23.00;37.34
34566;BME280;20803;42.676;26.348;2023-09-30T00:25:06;98841.19;;;22.98;37.05
34566;BME280;20803;42.676;26.348;2023-09-30T00:27:32;98844.81;;;22.98;37.04
34566;BME280;20803;42.676;26.348;2023-09-30T00:29:57;98851.66;;;22.92;37.04
34566;BME280;20803;42.676;26.348;2023-09-30T00:32:23;98843.09;;;22.86;37.20
34566;BME280;20803;42.676;26.348;2023-09-30T00:34:49;98842.31;;;22.86;37.57
34566;BME280;20803;42.676;26.348;2023-09-30T00:37:14;98844.06;;;22.83;37.33
34566;BME280;20803;42.676;26.348;2023-09-30T00:39:39;98838.69;;;22.85;37.31
34566;BME280;20803;42.676;26.348;2023-09-30T00:42:05;98829.97;;;22.89;37.62
34566;BME280;20803;42.676;26.348;2023-09-30T00:44:30;98841.75;;;23.02;37.15
34566;BME280;20803;42.676;26.348;2023-09-30T00:46:56;98835.53;;;22.98;37.66
34566;BME280;20803;42.676;26.348;2023-09-30T00:49:25;98836.50;;;22.95;37.68
34566;BME280;20803;42.676;26.348;2023-09-30T00:51:52;98832.75;;;23.03;37.72
34566;BME280;20803;42.676;26.348;2023-09-30T00:54:18;98832.75;;;23.03;37.31
34566;BME280;20803;42.676;26.348;2023-09-30T00:56:45;98833.66;;;22.95;37.21
34566;BME280;20803;42.676;26.348;2023-09-30T00:59:13;98831.31;;;22.93;37.46
34566;BME280;20803;42.676;26.348;2023-09-30T01:01:39;98830.75;;;22.89;37.74
34566;BME280;20803;42.676;26.348;2023-09-30T01:04:05;98830.19;;;22.85;37.57
34566;BME280;20803;42.676;26.348;2023-09-30T01:06:31;98828.69;;;22.90;37.53
34566;BME280;20803;42.676;26.348;2023-09-30T01:08:57;98820.41;;;22.86;37.94
34566;BME280;20803;42.676;26.348;2023-09-30T01:11:22;98823.81;;;22.90;38.05
34566;BME280;20803;42.676;26.348;2023-09-30T01:13:48;98825.09;;;22.89;38.14
34566;BME280;20803;42.676;26.348;2023-09-30T01:16:14;98827.19;;;22.74;38.68
34566;BME280;20803;42.676;26.348;2023-09-30T01:18:40;98812.25;;;22.59;38.91
34566;BME280;20803;42.676;26.348;2023-09-30T01:21:08;98820.56;;;22.62;38.79
34566;BME280;20803;42.676;26.348;2023-09-30T01:23:35;98816.00;;;22.50;38.92
34566;BME280;20803;42.676;26.348;2023-09-30T01:26:02;98819.22;;;22.43;38.95
34566;BME280;20803;42.676;26.348;2023-09-30T01:28:29;98814.03;;;22.42;38.90
34566;BME280;20803;42.676;26.348;2023-09-30T01:30:54;98819.00;;;22.47;38.58
34566;BME280;20803;42.676;26.348;2023-09-30T01:33:22;98815.69;;;22.48;38.39
34566;BME280;20803;42.676;26.348;2023-09-30T01:35:47;98819.69;;;22.56;38.33
34566;BME280;20803;42.676;26.348;2023-09-30T01:38:13;98819.84;;;22.67;38.17
34566;BME280;20803;42.676;26.348;2023-09-30T01:40:38;98827.34;;;22.71;37.73
34566;BME280;20803;42.676;26.348;2023-09-30T01:43:03;98832.34;;;22.76;37.73
34566;BME280;20803;42.676;26.348;2023-09-30T01:45:29;98826.00;;;22.66;37.88
34566;BME280;20803;42.676;26.348;2023-09-30T01:47:54;98828.53;;;22.64;37.85
34566;BME280;20803;42.676;26.348;2023-09-30T01:50:20;98825.22;;;22.65;38.05
34566;BME280;20803;42.676;26.348;2023-09-30T01:52:45;98834.03;;;22.67;37.76
34566;BME280;20803;42.676;26.348;2023-09-30T01:55:11;98834.28;;;22.70;37.61
34566;BME280;20803;42.676;26.348;2023-09-30T01:57:36;98831.88;;;22.77;37.66
34566;BME280;20803;42.676;26.348;2023-09-30T02:00:02;98832.44;;;22.66;37.41
34566;BME280;20803;42.676;26.348;2023-09-30T02:02:27;98828.91;;;22.72;37.57
34566;BME280;20803;42.676;26.348;2023-09-30T02:04:53;98829.72;;;22.72;37.35
34566;BME280;20803;42.676;26.348;2023-09-30T02:07:18;98832.44;;;22.66;37.66
34566;BME280;20803;42.676;26.348;2023-09-30T02:09:44;98831.44;;;22.70;37.44
34566;BME280;20803;42.676;26.348;2023-09-30T02:12:10;98833.72;;;22.65;37.47
34566;BME280;20803;42.676;26.348;2023-09-30T02:14:35;98836.78;;;22.62;37.74
34566;BME280;20803;42.676;26.348;2023-09-30T02:17:01;98830.25;;;22.56;37.70
34566;BME280;20803;42.676;26.348;2023-09-30T02:19:26;98840.22;;;22.37;38.15
34566;BME280;20803;42.676;26.348;2023-09-30T02:21:52;98829.38;;;22.50;37.94
34566;BME280;20803;42.676;26.348;2023-09-30T02:24:18;98833.78;;;22.36;37.98
34566;BME280;20803;42.676;26.348;2023-09-30T02:26:43;98822.44;;;22.36;37.79
34566;BME280;20803;42.676;26.348;2023-09-30T02:29:09;98816.78;;;22.36;38.01
34566;BME280;20803;42.676;26.348;2023-09-30T02:31:34;98820.78;;;22.44;37.73
34566;BME280;20803;42.676;26.348;2023-09-30T02:34:00;98819.00;;;22.47;37.59
34566;BME280;20803;42.676;26.348;2023-09-30T02:36:29;98812.78;;;22.43;37.83
34566;BME280;20803;42.676;26.348;2023-09-30T02:38:54;98812.00;;;22.42;37.81
34566;BME280;20803;42.676;26.348;2023-09-30T02:41:19;98800.66;;;22.42;38.10
34566;BME280;20803;42.676;26.348;2023-09-30T02:43:45;98807.28;;;22.39;38.15
34566;BME280;20803;42.676;26.348;2023-09-30T02:46:11;98809.63;;;22.41;37.92
34566;BME280;20803;42.676;26.348;2023-09-30T02:48:37;98815.50;;;22.37;38.12
34566;BME280;20803;42.676;26.348;2023-09-30T02:51:03;98806.03;;;22.40;38.24
34566;BME280;20803;42.676;26.348;2023-09-30T02:53:28;98804.09;;;22.32;38.35
34566;BME280;20803;42.676;26.348;2023-09-30T02:55:54;98817.25;;;22.35;38.50
34566;BME280;20803;42.676;26.348;2023-09-30T02:58:23;98807.31;;;22.10;38.51
34566;BME280;20803;42.676;26.348;2023-09-30T03:00:49;98802.72;;;22.27;38.72
34566;BME280;20803;42.676;26.348;2023-09-30T03:03:15;98815.13;;;22.15;38.29
34566;BME280;20803;42.676;26.348;2023-09-30T03:05:40;98806.53;;;22.09;38.52
34566;BME280;20803;42.676;26.348;2023-09-30T03:08:06;98801.78;;;22.01;38.54
34566;BME280;20803;42.676;26.348;2023-09-30T03:10:31;98803.03;;;22.00;38.63
34566;BME280;20803;42.676;26.348;2023-09-30T03:12:57;98803.88;;;21.76;38.82
34566;BME280;20803;42.676;26.348;2023-09-30T03:15:28;98792.75;;;21.88;38.68
34566;BME280;20803;42.676;26.348;2023-09-30T03:17:56;98808.97;;;21.87;38.63
34566;BME280;20803;42.676;26.348;2023-09-30T03:20:22;98798.44;;;21.88;38.53
34566;BME280;20803;42.676;26.348;2023-09-30T03:22:50;98795.78;;;21.84;38.43
34566;BME280;20803;42.676;26.348;2023-09-30T03:25:17;98804.75;;;21.82;38.43
34566;BME280;20803;42.676;26.348;2023-09-30T03:27:47;98798.50;;;21.78;38.51
34566;BME280;20803;42.676;26.348;2023-09-30T03:30:14;98802.22;;;21.84;38.21
34566;BME280;20803;42.676;26.348;2023-09-30T03:32:40;98789.16;;;21.87;38.27
34566;BME280;20803;42.676;26.348;2023-09-30T03:35:08;98802.75;;;21.98;38.14
34566;BME280;20803;42.676;26.348;2023-09-30T03:37:42;98805.56;;;21.98;38.04
34566;BME280;20803;42.676;26.348;2023-09-30T03:40:08;98807.78;;;21.94;38.06
34566;BME280;20803;42.676;26.348;2023-09-30T03:42:52;98800.66;;;21.83;38.08
34566;BME280;20803;42.676;26.348;2023-09-30T03:45:18;98797.03;;;21.68;37.95
34566;BME280;20803;42.676;26.348;2023-09-30T03:47:43;98805.03;;;21.70;38.30
34566;BME280;20803;42.676;26.348;2023-09-30T03:50:09;98799.06;;;21.53;38.02
34566;BME280;20803;42.676;26.348;2023-09-30T03:52:44;98806.31;;;21.69;38.13
34566;BME280;20803;42.676;26.348;2023-09-30T03:55:13;98796.25;;;21.68;37.70
34566;BME280;20803;42.676;26.348;2023-09-30T03:57:43;98796.66;;;21.75;37.91
34566;BME280;20803;42.676;26.348;2023-09-30T04:00:13;98800.16;;;21.85;37.80
34566;BME280;20803;42.676;26.348;2023-09-30T04:02:44;98805.13;;;21.90;37.82
34566;BME280;20803;42.676;26.348;2023-09-30T04:05:13;98807.78;;;21.94;37.67
34566;BME280;20803;42.676;26.348;2023-09-30T04:07:39;98808.56;;;21.79;37.83
34566;BME280;20803;42.676;26.348;2023-09-30T04:10:07;98795.00;;;21.69;37.73
34566;BME280;20803;42.676;26.348;2023-09-30T04:12:33;98796.84;;;21.57;38.24
34566;BME280;20803;42.676;26.348;2023-09-30T04:14:59;98798.44;;;21.34;38.46
34566;BME280;20803;42.676;26.348;2023-09-30T04:17:25;98803.81;;;21.47;38.48
34566;BME280;20803;42.676;26.348;2023-09-30T04:19:52;98801.72;;;21.57;38.13
34566;BME280;20803;42.676;26.348;2023-09-30T04:22:19;98807.25;;;21.66;38.05
34566;BME280;20803;42.676;26.348;2023-09-30T04:24:46;98802.22;;;21.70;38.37
34566;BME280;20803;42.676;26.348;2023-09-30T04:27:11;98815.75;;;21.66;38.54
34566;BME280;20803;42.676;26.348;2023-09-30T04:29:37;98807.38;;;21.71;37.96
34566;BME280;20803;42.676;26.348;2023-09-30T04:32:03;98799.19;;;21.59;38.34
34566;BME280;20803;42.676;26.348;2023-09-30T04:34:30;98799.84;;;21.54;38.49
34566;BME280;20803;42.676;26.348;2023-09-30T04:36:55;98808.50;;;21.50;38.59
34566;BME280;20803;42.676;26.348;2023-09-30T04:39:21;98817.00;;;21.50;38.34
34566;BME280;20803;42.676;26.348;2023-09-30T04:41:47;98805.84;;;21.32;38.67
34566;BME280;20803;42.676;26.348;2023-09-30T04:44:12;98806.88;;;21.20;39.13
34566;BME280;20803;42.676;26.348;2023-09-30T04:46:37;98810.34;;;21.38;38.87
34566;BME280;20803;42.676;26.348;2023-09-30T04:49:08;98819.72;;;21.44;38.58
34566;BME280;20803;42.676;26.348;2023-09-30T04:51:34;98815.53;;;21.55;38.48
34566;BME280;20803;42.676;26.348;2023-09-30T04:54:00;98812.44;;;21.53;38.34
34566;BME280;20803;42.676;26.348;2023-09-30T04:56:27;98818.34;;;21.40;38.63
34566;BME280;20803;42.676;26.348;2023-09-30T04:58:52;98814.53;;;21.43;38.82
34566;BME280;20803;42.676;26.348;2023-09-30T05:01:18;98820.56;;;21.36;38.92
34566;BME280;20803;42.676;26.348;2023-09-30T05:03:44;98817.63;;;21.30;38.97
34566;BME280;20803;42.676;26.348;2023-09-30T05:06:10;98816.41;;;21.46;39.13
34566;BME280;20803;42.676;26.348;2023-09-30T05:08:35;98816.63;;;21.57;38.96
34566;BME280;20803;42.676;26.348;2023-09-30T05:11:01;98817.41;;;21.72;38.86
34566;BME280;20803;42.676;26.348;2023-09-30T05:13:26;98816.84;;;21.68;39.03
34566;BME280;20803;42.676;26.348;2023-09-30T05:15:52;98814.59;;;21.72;38.96
34566;BME280;20803;42.676;26.348;2023-09-30T05:18:18;98806.63;;;21.71;39.26
34566;BME280;20803;42.676;26.348;2023-09-30T05:20:44;98821.81;;;21.73;39.32
34566;BME280;20803;42.676;26.348;2023-09-30T05:23:09;98805.34;;;21.86;39.29
34566;BME280;20803;42.676;26.348;2023-09-30T05:25:37;98817.94;;;21.85;39.13
34566;BME280;20803;42.676;26.348;2023-09-30T05:28:03;98824.47;;;21.92;39.34
34566;BME280;20803;42.676;26.348;2023-09-30T05:30:31;98819.91;;;22.23;38.83
34566;BME280;20803;42.676;26.348;2023-09-30T05:32:56;98822.84;;;22.44;39.10
34566;BME280;20803;42.676;26.348;2023-09-30T05:35:22;98818.47;;;22.63;38.35
34566;BME280;20803;42.676;26.348;2023-09-30T05:37:49;98825.63;;;22.73;38.67
34566;BME280;20803;42.676;26.348;2023-09-30T05:40:17;98819.22;;;22.93;38.13
34566;BME280;20803;42.676;26.348;2023-09-30T05:42:54;98824.53;;;23.05;37.92
34566;BME280;20803;42.676;26.348;2023-09-30T05:45:22;98814.47;;;23.25;37.41
34566;BME280;20803;42.676;26.348;2023-09-30T05:47:48;98829.16;;;23.23;37.43
34566;BME280;20803;42.676;26.348;2023-09-30T05:50:14;98825.31;;;23.06;37.70
34566;BME280;20803;42.676;26.348;2023-09-30T05:52:42;98832.84;;;23.09;38.08
34566;BME280;20803;42.676;26.348;2023-09-30T05:55:10;98820.72;;;23.09;37.72
34566;BME280;20803;42.676;26.348;2023-09-30T05:57:35;98835.66;;;23.09;37.91
34566;BME280;20803;42.676;26.348;2023-09-30T06:00:01;98826.25;;;22.97;37.71
34566;BME280;20803;42.676;26.348;2023-09-30T06:02:32;98827.13;;;22.89;37.84
34566;BME280;20803;42.676;26.348;2023-09-30T06:04:57;98837.44;;;23.06;37.47
34566;BME280;20803;42.676;26.348;2023-09-30T06:07:22;98833.53;;;23.24;37.61
34566;BME280;20803;42.676;26.348;2023-09-30T06:09:48;98832.91;;;23.35;36.99
34566;BME280;20803;42.676;26.348;2023-09-30T06:12:15;98836.78;;;23.52;37.47
34566;BME280;20803;42.676;26.348;2023-09-30T06:14:40;98834.53;;;23.82;36.21
34566;BME280;20803;42.676;26.348;2023-09-30T06:17:06;98837.97;;;23.92;36.14
34566;BME280;20803;42.676;26.348;2023-09-30T06:19:32;98831.84;;;23.99;35.76
34566;BME280;20803;42.676;26.348;2023-09-30T06:21:57;98835.31;;;24.08;35.96
34566;BME280;20803;42.676;26.348;2023-09-30T06:24:23;98836.22;;;24.20;35.62
34566;BME280;20803;42.676;26.348;2023-09-30T06:26:49;98836.59;;;24.33;35.63
34566;BME280;20803;42.676;26.348;2023-09-30T06:29:14;98831.09;;;24.55;35.09
34566;BME280;20803;42.676;26.348;2023-09-30T06:31:40;98833.94;;;24.55;35.68
34566;BME280;20803;42.676;26.348;2023-09-30T06:34:05;98841.59;;;24.75;34.92
34566;BME280;20803;42.676;26.348;2023-09-30T06:36:32;98823.88;;;24.91;34.87
34566;BME280;20803;42.676;26.348;2023-09-30T06:38:58;98829.75;;;24.82;33.90
34566;BME280;20803;42.676;26.348;2023-09-30T06:41:24;98838.00;;;24.80;34.24
34566;BME280;20803;42.676;26.348;2023-09-30T06:43:50;98833.50;;;24.68;34.61
34566;BME280;20803;42.676;26.348;2023-09-30T06:46:17;98833.84;;;24.44;34.58
34566;BME280;20803;42.676;26.348;2023-09-30T06:48:42;98851.44;;;24.48;35.24
34566;BME280;20803;42.676;26.348;2023-09-30T06:51:13;98849.53;;;24.71;34.96
34566;BME280;20803;42.676;26.348;2023-09-30T06:53:39;98828.19;;;24.81;34.43
34566;BME280;20803;42.676;26.348;2023-09-30T06:56:05;98849.91;;;24.84;34.17
34566;BME280;20803;42.676;26.348;2023-09-30T06:58:31;98838.16;;;25.02;33.66
34566;BME280;20803;42.676;26.348;2023-09-30T07:00:56;98848.56;;;25.11;33.67
34566;BME280;20803;42.676;26.348;2023-09-30T07:03:22;98848.34;;;25.26;33.19
34566;BME280;20803;42.676;26.348;2023-09-30T07:05:47;98833.44;;;25.36;32.53
34566;BME280;20803;42.676;26.348;2023-09-30T07:08:17;98837.41;;;25.08;32.62
34566;BME280;20803;42.676;26.348;2023-09-30T07:10:43;98870.28;;;25.14;32.44
34566;BME280;20803;42.676;26.348;2023-09-30T07:13:09;98858.72;;;25.29;32.50
34566;BME280;20803;42.676;26.348;2023-09-30T07:15:34;98871.41;;;25.33;32.57
34566;BME280;20803;42.676;26.348;2023-09-30T07:18:00;98862.66;;;25.37;32.26
34566;BME280;20803;42.676;26.348;2023-09-30T07:20:25;98871.88;;;25.21;31.50
34566;BME280;20803;42.676;26.348;2023-09-30T07:22:51;98850.41;;;25.20;32.02
34566;BME280;20803;42.676;26.348;2023-09-30T07:25:17;98858.38;;;25.10;32.24
34566;BME280;20803;42.676;26.348;2023-09-30T07:27:43;98862.47;;;25.03;33.07
34566;BME280;20803;42.676;26.348;2023-09-30T07:30:10;98878.81;;;25.14;32.72
34566;BME280;20803;42.676;26.348;2023-09-30T07:32:37;98890.66;;;25.07;32.78
34566;BME280;20803;42.676;26.348;2023-09-30T07:35:03;98872.22;;;24.91;31.90
34566;BME280;20803;42.676;26.348;2023-09-30T07:37:28;98868.81;;;24.87;32.16
34566;BME280;20803;42.676;26.348;2023-09-30T07:39:54;98868.09;;;24.92;33.13
34566;BME280;20803;42.676;26.348;2023-09-30T07:42:19;98872.75;;;24.95;33.25
34566;BME280;20803;42.676;26.348;2023-09-30T07:44:45;98865.06;;;25.07;33.69
34566;BME280;20803;42.676;26.348;2023-09-30T07:47:10;98865.44;;;25.26;33.37
34566;BME280;20803;42.676;26.348;2023-09-30T07:49:37;98870.69;;;25.44;33.33
34566;BME280;20803;42.676;26.348;2023-09-30T07:52:03;98872.41;;;25.67;33.27
34566;BME280;20803;42.676;26.348;2023-09-30T07:54:29;98872.19;;;25.88;33.01
34566;BME280;20803;42.676;26.348;2023-09-30T07:56:54;98871.72;;;26.11;32.52
34566;BME280;20803;42.676;26.348;2023-09-30T07:59:20;98883.44;;;26.24;32.39
34566;BME280;20803;42.676;26.348;2023-09-30T08:01:47;98878.53;;;26.42;32.10
34566;BME280;20803;42.676;26.348;2023-09-30T08:04:13;98876.72;;;26.39;31.98
34566;BME280;20803;42.676;26.348;2023-09-30T08:06:38;98882.16;;;26.42;31.87
34566;BME280;20803;42.676;26.348;2023-09-30T08:09:05;98890.44;;;26.29;32.17
34566;BME280;20803;42.676;26.348;2023-09-30T08:11:36;98889.91;;;26.31;31.48
34566;BME280;20803;42.676;26.348;2023-09-30T08:14:03;98887.56;;;26.29;31.61
34566;BME280;20803;42.676;26.348;2023-09-30T08:16:37;98893.31;;;26.35;32.20
34566;BME280;20803;42.676;26.348;2023-09-30T08:19:03;98896.56;;;26.11;32.21
34566;BME280;20803;42.676;26.348;2023-09-30T08:21:30;98890.19;;;26.27;31.92
34566;BME280;20803;42.676;26.348;2023-09-30T08:23:56;98887.56;;;26.23;32.18
34566;BME280;20803;42.676;26.348;2023-09-30T08:26:22;98898.91;;;26.12;32.51
34566;BME280;20803;42.676;26.348;2023-09-30T08:28:48;98907.00;;;26.25;32.40
34566;BME280;20803;42.676;26.348;2023-09-30T08:31:13;98890.19;;;26.27;31.66
34566;BME280;20803;42.676;26.348;2023-09-30T08:33:39;98891.75;;;26.28;31.82
34566;BME280;20803;42.676;26.348;2023-09-30T08:36:10;98881.91;;;26.35;31.53
34566;BME280;20803;42.676;26.348;2023-09-30T08:38:37;98895.38;;;26.34;31.70
34566;BME280;20803;42.676;26.348;2023-09-30T08:41:03;98892.78;;;26.42;31.75
34566;BME280;20803;42.676;26.348;2023-09-30T08:43:29;98890.19;;;26.38;31.97
34566;BME280;20803;42.676;26.348;2023-09-30T08:45:58;98886.84;;;26.34;31.05
34566;BME280;20803;42.676;26.348;2023-09-30T08:48:24;98889.13;;;26.24;31.12
34566;BME280;20803;42.676;26.348;2023-09-30T08:50:52;98895.88;;;26.27;31.74
34566;BME280;20803;42.676;26.348;2023-09-30T08:53:18;98882.44;;;26.44;31.61
34566;BME280;20803;42.676;26.348;2023-09-30T08:55:45;98893.56;;;26.42;31.92
34566;BME280;20803;42.676;26.348;2023-09-30T08:58:12;98879.06;;;26.40;31.90
34566;BME280;20803;42.676;26.348;2023-09-30T09:00:39;98879.31;;;26.31;32.39
34566;BME280;20803;42.676;26.348;2023-09-30T09:03:06;98887.31;;;26.21;32.25
34566;BME280;20803;42.676;26.348;2023-09-30T09:05:33;98892.72;;;26.19;32.26
34566;BME280;20803;42.676;26.348;2023-09-30T09:07:58;98883.66;;;26.21;32.39
34566;BME280;20803;42.676;26.348;2023-09-30T09:10:27;98891.22;;;26.30;32.54
34566;BME280;20803;42.676;26.348;2023-09-30T09:12:57;98896.41;;;26.48;32.04
34566;BME280;20803;42.676;26.348;2023-09-30T09:15:27;98885.78;;;26.37;32.02
34566;BME280;20803;42.676;26.348;2023-09-30T09:17:54;98894.59;;;26.28;31.96
34566;BME280;20803;42.676;26.348;2023-09-30T09:20:24;98910.41;;;26.35;31.92
34566;BME280;20803;42.676;26.348;2023-09-30T09:22:53;98900.81;;;26.49;31.47
34566;BME280;20803;42.676;26.348;2023-09-30T09:25:21;98889.41;;;26.54;31.34
34566;BME280;20803;42.676;26.348;2023-09-30T09:27:50;98896.44;;;26.59;31.14
34566;BME280;20803;42.676;26.348;2023-09-30T09:30:26;98895.13;;;26.65;31.42
34566;BME280;20803;42.676;26.348;2023-09-30T09:32:53;98892.81;;;26.75;31.35
34566;BME280;20803;42.676;26.348;2023-09-30T09:35:20;98897.97;;;26.88;31.10
34566;BME280;20803;42.676;26.348;2023-09-30T09:38:06;98891.75;;;26.67;30.96
34566;BME280;20803;42.676;26.348;2023-09-30T09:40:36;98897.72;;;26.75;30.57
34566;BME280;20803;42.676;26.348;2023-09-30T09:43:04;98888.38;;;26.80;30.60
34566;BME280;20803;42.676;26.348;2023-09-30T09:45:33;98886.59;;;26.77;30.55
34566;BME280;20803;42.676;26.348;2023-09-30T09:47:59;98875.69;;;26.70;30.90
34566;BME280;20803;42.676;26.348;2023-09-30T09:50:24;98875.94;;;26.72;30.96
34566;BME280;20803;42.676;26.348;2023-09-30T09:52:52;98875.94;;;26.72;31.12
34566;BME280;20803;42.676;26.348;2023-09-30T09:55:20;98879.84;;;26.69;30.93
34566;BME280;20803;42.676;26.348;2023-09-30T09:57:47;98878.25;;;26.84;30.98
34566;BME280;20803;42.676;26.348;2023-09-30T10:00:25;98877.47;;;26.84;31.01
34566;BME280;20803;42.676;26.348;2023-09-30T10:02:51;98875.94;;;26.83;31.20
34566;BME280;20803;42.676;26.348;2023-09-30T10:05:19;98872.03;;;26.86;31.29
34566;BME280;20803;42.676;26.348;2023-09-30T10:07:47;98872.06;;;26.80;31.35
34566;BME280;20803;42.676;26.348;2023-09-30T10:10:17;98869.72;;;26.79;31.54
34566;BME280;20803;42.676;26.348;2023-09-30T10:12:44;98860.13;;;26.76;31.54
34566;BME280;20803;42.676;26.348;2023-09-30T10:18:00;98863.75;;;26.82;31.47
34566;BME280;20803;42.676;26.348;2023-09-30T10:20:29;98845.59;;;26.85;31.75
34566;BME280;20803;42.676;26.348;2023-09-30T10:25:42;98838.03;;;27.21;30.22
34566;BME280;20803;42.676;26.348;2023-09-30T10:28:40;98850.19;;;27.38;30.21
34566;BME280;20803;42.676;26.348;2023-09-30T10:31:14;98847.78;;;27.54;30.01
34566;BME280;20803;42.676;26.348;2023-09-30T10:36:28;98841.19;;;27.75;29.18
34566;BME280;20803;42.676;26.348;2023-09-30T10:38:54;98844.00;;;27.87;28.95
34566;BME280;20803;42.676;26.348;2023-09-30T10:46:54;98824.13;;;27.64;28.67
34566;BME280;20803;42.676;26.348;2023-09-30T10:49:30;98825.59;;;27.76;28.85
34566;BME280;20803;42.676;26.348;2023-09-30T10:51:58;98817.81;;;27.77;28.78
34566;BME280;20803;42.676;26.348;2023-09-30T10:54:29;98815.78;;;27.72;28.83
34566;BME280;20803;42.676;26.348;2023-09-30T10:56:55;98820.97;;;27.73;28.85
34566;BME280;20803;42.676;26.348;2023-09-30T10:59:25;98820.09;;;27.90;28.92
34566;BME280;20803;42.676;26.348;2023-09-30T11:01:51;98818.16;;;28.09;28.89
34566;BME280;20803;42.676;26.348;2023-09-30T11:04:17;98825.31;;;28.27;28.30
34566;BME280;20803;42.676;26.348;2023-09-30T11:06:44;98826.25;;;28.40;27.45
34566;BME280;20803;42.676;26.348;2023-09-30T11:09:15;98815.88;;;28.37;27.24
34566;BME280;20803;42.676;26.348;2023-09-30T11:11:44;98818.56;;;28.30;27.68
34566;BME280;20803;42.676;26.348;2023-09-30T11:14:27;98820.06;;;28.31;28.15
34566;BME280;20803;42.676;26.348;2023-09-30T11:16:54;98808.13;;;28.32;27.38
34566;BME280;20803;42.676;26.348;2023-09-30T11:19:21;98809.53;;;28.50;27.55
34566;BME280;20803;42.676;26.348;2023-09-30T11:21:51;98816.28;;;28.52;27.71
34566;BME280;20803;42.676;26.348;2023-09-30T11:24:17;98805.84;;;28.55;27.84
34566;BME280;20803;42.676;26.348;2023-09-30T11:26:46;98813.66;;;28.54;27.89
34566;BME280;20803;42.676;26.348;2023-09-30T11:29:14;98811.22;;;28.64;27.58
34566;BME280;20803;42.676;26.348;2023-09-30T11:31:41;98799.41;;;28.73;27.28
34566;BME280;20803;42.676;26.348;2023-09-30T11:34:08;98793.97;;;28.75;27.44
34566;BME280;20803;42.676;26.348;2023-09-30T11:36:39;98790.66;;;28.95;27.06
34566;BME280;20803;42.676;26.348;2023-09-30T11:39:08;98786.69;;;28.98;26.58
34566;BME280;20803;42.676;26.348;2023-09-30T11:41:40;98794.16;;;28.83;27.14
34566;BME280;20803;42.676;26.348;2023-09-30T11:44:09;98787.91;;;28.84;27.02
34566;BME280;20803;42.676;26.348;2023-09-30T11:46:56;98777.13;;;28.96;26.92
34566;BME280;20803;42.676;26.348;2023-09-30T11:49:37;98789.81;;;28.76;27.11
34566;BME280;20803;42.676;26.348;2023-09-30T11:52:12;98778.38;;;28.76;26.94
34566;BME280;20803;42.676;26.348;2023-09-30T11:54:43;98781.00;;;28.69;27.50
34566;BME280;20803;42.676;26.348;2023-09-30T11:57:11;98773.13;;;28.80;27.33
34566;BME280;20803;42.676;26.348;2023-09-30T11:59:37;98779.09;;;28.82;26.95
34566;BME280;20803;42.676;26.348;2023-09-30T12:02:04;98774.31;;;28.90;26.65
34566;BME280;20803;42.676;26.348;2023-09-30T12:04:34;98768.22;;;28.99;27.23
34566;BME280;20803;42.676;26.348;2023-09-30T12:07:00;98757.66;;;29.13;27.61
34566;BME280;20803;42.676;26.348;2023-09-30T12:09:25;98760.06;;;29.28;27.64
34566;BME280;20803;42.676;26.348;2023-09-30T12:11:53;98750.91;;;29.54;27.05
34566;BME280;20803;42.676;26.348;2023-09-30T12:14:21;98752.38;;;29.41;26.33
34566;BME280;20803;42.676;26.348;2023-09-30T12:16:47;98743.38;;;29.32;26.74
34566;BME280;20803;42.676;26.348;2023-09-30T12:19:16;98741.00;;;29.36;27.21
34566;BME280;20803;42.676;26.348;2023-09-30T12:21:44;98741.69;;;29.42;27.54
34566;BME280;20803;42.676;26.348;2023-09-30T12:24:13;98733.78;;;29.48;27.08
34566;BME280;20803;42.676;26.348;2023-09-30T12:26:45;98744.56;;;29.61;26.84
34566;BME280;20803;42.676;26.348;2023-09-30T12:29:22;98733.53;;;29.65;26.50
34566;BME280;20803;42.676;26.348;2023-09-30T12:31:53;98728.59;;;29.47;26.77
34566;BME280;20803;42.676;26.348;2023-09-30T12:34:18;98724.34;;;29.53;26.91
34566;BME280;20803;42.676;26.348;2023-09-30T12:36:44;98721.19;;;29.57;26.82
34566;BME280;20803;42.676;26.348;2023-09-30T12:39:10;98723.25;;;29.75;26.53
34566;BME280;20803;42.676;26.348;2023-09-30T12:41:41;98716.94;;;29.63;26.12
34566;BME280;20803;42.676;26.348;2023-09-30T12:44:07;98707.91;;;29.72;26.16
34566;BME280;20803;42.676;26.348;2023-09-30T12:46:33;98717.28;;;29.92;25.24
34566;BME280;20803;42.676;26.348;2023-09-30T12:49:01;98718.34;;;29.89;24.87
34566;BME280;20803;42.676;26.348;2023-09-30T12:51:27;98703.41;;;29.96;25.22
34566;BME280;20803;42.676;26.348;2023-09-30T12:53:53;98713.94;;;30.06;25.14
34566;BME280;20803;42.676;26.348;2023-09-30T12:56:18;98705.09;;;30.04;24.73
34566;BME280;20803;42.676;26.348;2023-09-30T12:58:44;98719.75;;;30.01;24.68
34566;BME280;20803;42.676;26.348;2023-09-30T13:01:09;98705.56;;;29.90;24.98
34566;BME280;20803;42.676;26.348;2023-09-30T13:03:35;98705.81;;;29.92;25.17